Time;durP1;ratioP1;P1;durP2;ratioP2;P2;SDS_P1;SDS_P2;PMS_P1;PMS_P2;Temp;Humidity;BMP_temperature;BMP_pressure;BME280_temperature;BME280_humidity;BME280_pressure;Samples;Min_cycle;Max_cycle;Signal;HPM_P1;HPM_P2
2022/08/29 00:01:39;;;;;;;;;17.50;11.75;;;30.54;100851.45;;;;117430;1189;25750;-61
2022/08/29 00:04:07;;;;;;;;;16.50;10.25;;;30.54;100851.72;;;;117448;1189;25652;-60
2022/08/29 00:06:36;;;;;;;;;16.67;12.33;;;30.54;100850.84;;;;117505;1191;25210;-62
2022/08/29 00:09:05;;;;;;;;;13.67;13.00;;;30.54;100852.27;;;;117444;1190;25091;-61
2022/08/29 00:11:33;;;;;;;;;14.67;11.33;;;30.53;100848.52;;;;117365;1190;25378;-60
2022/08/29 00:14:02;;;;;;;;;14.50;13.00;;;30.53;100854.04;;;;117400;1190;25365;-60
2022/08/29 00:16:30;;;;;;;;;11.00;9.50;;;30.52;100855.60;;;;117448;1190;25232;-60
2022/08/29 00:18:59;;;;;;;;;11.50;10.25;;;30.51;100851.71;;;;117382;1190;25296;-62
2022/08/29 00:21:27;;;;;;;;;17.75;14.25;;;30.51;100854.92;;;;117293;1190;25444;-60
2022/08/29 00:23:55;;;;;;;;;12.67;12.00;;;30.50;100857.98;;;;117364;1189;26155;-60
2022/08/29 00:26:24;;;;;;;;;16.50;10.25;;;30.49;100858.73;;;;117437;1190;25393;-61
2022/08/29 00:28:57;;;;;;;;;16.00;12.00;;;30.50;100861.93;;;;117344;1189;25572;-60
2022/08/29 00:31:27;;;;;;;;;12.00;9.67;;;30.50;100861.12;;;;117467;1189;25517;-60
2022/08/29 00:33:56;;;;;;;;;10.00;9.00;;;30.50;100861.30;;;;117402;1190;25472;-60
2022/08/29 00:36:25;;;;;;;;;16.50;13.50;;;30.50;100860.14;;;;117419;1190;25028;-60
2022/08/29 00:38:57;;;;;;;;;9.25;9.25;;;30.49;100856.39;;;;117393;1190;25586;-62
2022/08/29 00:41:25;;;;;;;;;13.00;10.75;;;30.49;100855.59;;;;117369;1189;24986;-60
2022/08/29 00:43:54;;;;;;;;;15.00;12.00;;;30.49;100855.09;;;;117276;1190;25629;-60
2022/08/29 00:46:41;;;;;;;;;11.33;10.67;;;30.48;100858.11;;;;117382;1190;25598;-60
2022/08/29 00:49:22;;;;;;;;;10.00;10.00;;;30.47;100857.52;;;;117432;1190;25017;-60
2022/08/29 00:51:51;;;;;;;;;19.00;15.00;;;30.47;100855.13;;;;117447;1190;25747;-60
2022/08/29 00:54:21;;;;;;;;;17.25;12.25;;;30.49;100852.80;;;;117434;1190;25301;-60
2022/08/29 00:56:50;;;;;;;;;14.50;9.75;;;30.48;100850.08;;;;117430;1190;25035;-59
2022/08/29 00:59:30;;;;;;;;;13.75;12.50;;;30.49;100851.78;;;;117443;1190;25646;-60
2022/08/29 01:01:59;;;;;;;;;17.00;12.00;;;30.49;100851.31;;;;117435;1190;25065;-60
2022/08/29 01:04:28;;;;;;;;;17.75;12.25;;;30.49;100851.86;;;;117431;1190;25332;-60
2022/08/29 01:06:57;;;;;;;;;14.25;10.75;;;30.48;100849.16;;;;117437;1190;24784;-61
2022/08/29 01:09:27;;;;;;;;;16.25;10.00;;;30.47;100852.95;;;;117440;1190;25626;-61
2022/08/29 01:14:46;;;;;;;;;11.50;7.75;;;30.46;100858.14;;;;117387;1190;25449;-60
2022/08/29 01:17:20;;;;;;;;;18.00;13.67;;;30.45;100858.84;;;;117407;1190;25504;-60
2022/08/29 01:19:58;;;;;;;;;14.25;12.00;;;30.44;100856.58;;;;117439;1189;26814;-60
2022/08/29 01:22:35;;;;;;;;;19.00;12.50;;;30.46;100860.27;;;;117415;1189;25410;-61
2022/08/29 01:25:07;;;;;;;;;14.00;12.67;;;30.46;100859.23;;;;117420;1189;25815;-60
2022/08/29 01:27:38;;;;;;;;;16.33;13.67;;;30.46;100858.92;;;;117400;1190;24893;-60
2022/08/29 01:30:09;;;;;;;;;11.25;11.25;;;30.45;100856.35;;;;117433;1190;25049;-60
2022/08/29 01:32:37;;;;;;;;;11.00;9.50;;;30.45;100856.45;;;;117398;1190;24944;-58
2022/08/29 01:35:07;;;;;;;;;12.67;10.00;;;30.45;100855.09;;;;117372;1190;25323;-60
2022/08/29 01:37:40;;;;;;;;;16.00;12.00;;;30.43;100855.20;;;;117422;1190;25437;-60
2022/08/29 01:40:09;;;;;;;;;15.50;12.25;;;30.43;100853.30;;;;117407;1189;25126;-60
2022/08/29 01:42:38;;;;;;;;;15.33;14.00;;;30.44;100850.44;;;;117423;1189;25277;-61
2022/08/29 01:45:08;;;;;;;;;13.50;11.00;;;30.43;100849.33;;;;117383;1190;25281;-60
2022/08/29 01:47:38;;;;;;;;;12.25;7.50;;;30.43;100851.91;;;;117392;1190;25839;-61
2022/08/29 01:50:13;;;;;;;;;13.00;11.00;;;30.42;100851.27;;;;117451;1190;25282;-59
2022/08/29 01:52:42;;;;;;;;;12.25;11.50;;;30.44;100849.88;;;;117430;1189;25376;-60
2022/08/29 01:55:10;;;;;;;;;12.00;9.75;;;30.45;100849.77;;;;117449;1189;25807;-60
2022/08/29 01:57:40;;;;;;;;;13.67;11.33;;;30.44;100852.34;;;;117410;1190;24879;-61
2022/08/29 02:00:10;;;;;;;;;17.67;10.67;;;30.44;100856.48;;;;117429;1190;25075;-60
2022/08/29 02:02:40;;;;;;;;;12.75;10.75;;;30.43;100858.31;;;;117378;1191;24831;-61
2022/08/29 02:05:08;;;;;;;;;12.33;10.00;;;30.42;100857.33;;;;117435;1189;24992;-60
2022/08/29 02:07:37;;;;;;;;;14.50;11.00;;;30.43;100860.05;;;;117400;1190;24793;-61
2022/08/29 02:10:06;;;;;;;;;12.25;10.00;;;30.42;100860.16;;;;117411;1191;25602;-62
2022/08/29 02:12:34;;;;;;;;;12.25;10.25;;;30.41;100855.96;;;;117463;1190;25517;-60
2022/08/29 02:15:04;;;;;;;;;11.75;10.25;;;30.40;100853.02;;;;117467;1190;25930;-60
2022/08/29 02:17:33;;;;;;;;;14.33;12.33;;;30.41;100852.75;;;;117465;1190;24905;-60
2022/08/29 02:20:05;;;;;;;;;16.75;12.50;;;30.40;100852.43;;;;117399;1190;25566;-61
2022/08/29 02:22:35;;;;;;;;;15.50;11.25;;;30.39;100855.48;;;;117431;1190;25293;-60
2022/08/29 02:25:40;;;;;;;;;11.25;9.25;;;30.39;100858.44;;;;117366;1191;25414;-61
2022/08/29 02:27:54;;;;;;;;;15.67;11.67;;;30.42;100862.20;;;;117420;1189;24794;-61
2022/08/29 02:30:24;;;;;;;;;13.25;13.00;;;30.44;100865.67;;;;117429;1189;25598;-60
2022/08/29 02:32:52;;;;;;;;;14.50;12.50;;;30.42;100867.84;;;;117427;1190;25478;-61
2022/08/29 02:35:21;;;;;;;;;18.50;12.00;;;30.41;100868.61;;;;117476;1190;25201;-60
2022/08/29 02:37:51;;;;;;;;;11.75;10.50;;;30.41;100874.52;;;;117415;1191;25508;-61
2022/08/29 02:40:19;;;;;;;;;16.00;12.25;;;30.41;100875.78;;;;117271;1190;25466;-60
2022/08/29 02:42:59;;;;;;;;;13.50;10.50;;;30.41;100880.83;;;;117394;1188;24793;-62
2022/08/29 02:45:29;;;;;;;;;17.33;10.33;;;30.42;100882.50;;;;117411;1189;24938;-60
2022/08/29 02:47:58;;;;;;;;;22.25;14.75;;;30.41;100883.42;;;;117440;1190;25352;-63
2022/08/29 02:50:26;;;;;;;;;15.00;10.00;;;30.41;100883.57;;;;117425;1191;25016;-60
2022/08/29 02:52:55;;;;;;;;;15.00;12.25;;;30.41;100884.31;;;;117385;1190;25552;-59
2022/08/29 02:55:25;;;;;;;;;11.25;9.25;;;30.38;100886.96;;;;117442;1190;24835;-61
2022/08/29 02:57:53;;;;;;;;;13.00;12.00;;;30.39;100887.60;;;;117429;1190;24945;-60
2022/08/29 03:00:24;;;;;;;;;18.25;13.50;;;30.38;100887.38;;;;117425;1190;25856;-60
2022/08/29 03:02:54;;;;;;;;;19.75;12.50;;;30.38;100890.96;;;;117407;1190;24774;-59
2022/08/29 03:05:26;;;;;;;;;18.00;14.50;;;30.39;100890.15;;;;117452;1190;25403;-61
2022/08/29 03:07:57;;;;;;;;;17.50;12.00;;;30.38;100891.48;;;;117425;1190;25694;-60
2022/08/29 03:10:27;;;;;;;;;10.75;10.50;;;30.39;100890.59;;;;117368;1190;24741;-60
2022/08/29 03:12:55;;;;;;;;;13.75;11.25;;;30.40;100894.15;;;;117443;1189;25574;-62
2022/08/29 03:15:25;;;;;;;;;19.00;12.75;;;30.38;100894.13;;;;117438;1190;24818;-62
2022/08/29 03:17:53;;;;;;;;;14.50;12.25;;;30.38;100905.75;;;;117417;1190;25094;-60
2022/08/29 03:20:23;;;;;;;;;13.50;12.00;;;30.39;100908.98;;;;117439;1190;24972;-61
2022/08/29 03:22:53;;;;;;;;;14.75;10.25;;;30.39;100914.28;;;;117434;1190;25385;-59
2022/08/29 03:25:22;;;;;;;;;14.75;11.50;;;30.38;100915.68;;;;117466;1190;25424;-62
2022/08/29 03:27:51;;;;;;;;;16.75;12.50;;;30.39;100919.29;;;;117445;1189;25594;-61
2022/08/29 03:30:20;;;;;;;;;13.00;7.75;;;30.39;100919.49;;;;117443;1190;25474;-61
2022/08/29 03:32:51;;;;;;;;;12.25;12.00;;;30.38;100920.43;;;;117352;1191;25264;-59
2022/08/29 03:35:21;;;;;;;;;17.00;11.00;;;30.38;100922.92;;;;117414;1191;25405;-61
2022/08/29 03:37:50;;;;;;;;;18.00;16.33;;;30.38;100927.52;;;;117474;1190;25175;-60
2022/08/29 03:40:19;;;;;;;;;19.00;13.50;;;30.37;100928.14;;;;117436;1190;25389;-60
2022/08/29 03:42:47;;;;;;;;;4.25;2.75;;;30.38;100930.39;;;;117232;1190;25299;-59
2022/08/29 03:45:17;;;;;;;;;11.75;10.50;;;30.38;100933.38;;;;117426;1190;25389;-60
2022/08/29 03:47:45;;;;;;;;;13.75;9.00;;;30.37;100932.91;;;;117371;1190;25806;-60
2022/08/29 03:50:15;;;;;;;;;17.67;13.00;;;30.38;100934.08;;;;117491;1190;25174;-60
2022/08/29 03:52:44;;;;;;;;;17.00;14.33;;;30.37;100937.27;;;;117451;1190;25684;-61
2022/08/29 03:55:12;;;;;;;;;16.50;14.25;;;30.37;100941.38;;;;117403;1190;25127;-63
2022/08/29 03:57:41;;;;;;;;;15.00;13.75;;;30.37;100941.79;;;;117210;1191;25563;-62
2022/08/29 04:00:15;;;;;;;;;12.25;12.25;;;30.38;100943.89;;;;117513;1190;25205;-62
2022/08/29 04:02:45;;;;;;;;;18.00;14.00;;;30.37;100942.04;;;;117433;1190;24692;-60
2022/08/29 04:05:16;;;;;;;;;15.50;12.50;;;30.39;100944.66;;;;117467;1191;24875;-61
2022/08/29 04:07:55;;;;;;;;;17.75;12.25;;;30.38;100944.59;;;;117426;1190;25301;-59
2022/08/29 04:10:33;;;;;;;;;15.33;14.00;;;30.39;100946.48;;;;117477;1190;25093;-60
2022/08/29 04:13:01;;;;;;;;;12.67;8.33;;;30.38;100944.23;;;;117391;1190;25161;-61
2022/08/29 04:15:31;;;;;;;;;18.50;12.00;;;30.37;100945.45;;;;117413;1190;25469;-60
2022/08/29 04:18:01;;;;;;;;;16.75;13.25;;;30.35;100948.52;;;;117405;1190;25568;-61
2022/08/29 04:20:36;;;;;;;;;13.25;11.25;;;30.38;100950.77;;;;117379;1190;25467;-60
2022/08/29 04:23:06;;;;;;;;;19.50;13.50;;;30.38;100949.23;;;;117413;1190;25145;-61
2022/08/29 04:25:35;;;;;;;;;13.00;12.00;;;30.37;100952.33;;;;117422;1190;25040;-60
2022/08/29 04:28:07;;;;;;;;;12.00;10.67;;;30.37;100951.27;;;;117388;1190;25600;-60
2022/08/29 04:30:38;;;;;;;;;12.00;11.67;;;30.36;100952.64;;;;117419;1190;24700;-62
2022/08/29 04:33:06;;;;;;;;;14.75;11.50;;;30.37;100950.54;;;;117375;1190;25583;-61
2022/08/29 04:35:36;;;;;;;;;11.75;11.50;;;30.39;100953.98;;;;117384;1190;25626;-61
2022/08/29 04:38:04;;;;;;;;;10.75;10.75;;;30.38;100952.67;;;;117413;1189;24908;-60
2022/08/29 04:40:33;;;;;;;;;17.25;14.00;;;30.38;100952.90;;;;117401;1190;25628;-60
2022/08/29 04:43:02;;;;;;;;;11.75;10.00;;;30.38;100954.59;;;;117412;1190;25441;-61
2022/08/29 04:45:32;;;;;;;;;17.67;12.33;;;30.38;100955.55;;;;117432;1190;25257;-61
2022/08/29 04:48:02;;;;;;;;;14.50;11.75;;;30.39;100957.52;;;;117430;1190;25181;-60
2022/08/29 04:50:30;;;;;;;;;14.00;13.50;;;30.39;100958.92;;;;117396;1190;24788;-59
2022/08/29 04:53:00;;;;;;;;;14.33;12.33;;;30.41;100961.48;;;;117398;1189;25336;-62
2022/08/29 04:55:30;;;;;;;;;12.00;11.25;;;30.41;100962.77;;;;117443;1190;25786;-61
2022/08/29 04:57:58;;;;;;;;;17.50;12.50;;;30.43;100964.41;;;;117407;1190;25634;-61
2022/08/29 05:00:28;;;;;;;;;17.25;11.75;;;30.40;100965.39;;;;117455;1190;25336;-61
2022/08/29 05:02:58;;;;;;;;;12.33;10.33;;;30.42;100967.95;;;;117431;1190;24775;-62
2022/08/29 05:05:26;;;;;;;;;19.25;15.25;;;30.41;100967.68;;;;117269;1190;25990;-61
2022/08/29 05:07:55;;;;;;;;;17.25;17.00;;;30.48;100966.90;;;;117501;1190;24866;-61
2022/08/29 05:10:25;;;;;;;;;17.00;13.33;;;30.44;100965.21;;;;118716;1190;25017;-62
2022/08/29 05:12:53;;;;;;;;;17.50;12.00;;;30.65;100966.45;;;;117297;1189;25009;-70
2022/08/29 05:15:22;;;;;;;;;16.67;13.00;;;30.67;100968.25;;;;117278;1191;24995;-64
2022/08/29 05:17:52;;;;;;;;;15.33;12.33;;;30.68;100970.73;;;;117415;1190;25351;-61
2022/08/29 05:20:20;;;;;;;;;13.33;13.00;;;30.67;100971.45;;;;117339;1190;25523;-61
2022/08/29 05:22:49;;;;;;;;;15.25;13.25;;;30.69;100972.63;;;;117437;1190;25512;-63
2022/08/29 05:25:18;;;;;;;;;18.00;13.00;;;30.67;100971.80;;;;117332;1190;24826;-62
2022/08/29 05:27:46;;;;;;;;;16.25;14.75;;;30.67;100976.93;;;;117435;1189;25056;-62
2022/08/29 05:30:16;;;;;;;;;19.75;14.25;;;30.69;100973.91;;;;117351;1189;25657;-63
2022/08/29 05:33:02;;;;;;;;;18.00;13.67;;;30.76;100974.92;;;;117438;1190;25218;-63
2022/08/29 05:35:32;;;;;;;;;16.00;15.33;;;30.81;100973.42;;;;117421;1189;24850;-63
2022/08/29 05:38:01;;;;;;;;;17.67;16.00;;;30.83;100970.10;;;;117461;1190;24923;-62
2022/08/29 05:40:36;;;;;;;;;14.67;12.67;;;30.86;100967.75;;;;117434;1189;24872;-61
2022/08/29 05:43:06;;;;;;;;;13.75;11.25;;;30.89;100965.05;;;;117412;1190;25273;-61
2022/08/29 05:45:36;;;;;;;;;16.00;12.67;;;30.92;100968.27;;;;117507;1191;24948;-61
2022/08/29 05:48:06;;;;;;;;;16.50;13.75;;;30.95;100970.46;;;;117444;1190;24984;-63
2022/08/29 05:50:42;;;;;;;;;11.25;8.50;;;30.98;100972.62;;;;117440;1189;24844;-62
2022/08/29 05:53:13;;;;;;;;;14.25;13.00;;;31.01;100972.35;;;;117435;1189;24825;-63
2022/08/29 05:55:44;;;;;;;;;18.00;13.75;;;31.05;100974.12;;;;117457;1189;24879;-62
2022/08/29 05:58:12;;;;;;;;;16.50;15.50;;;31.08;100973.02;;;;117478;1189;25509;-62
2022/08/29 06:00:43;;;;;;;;;15.75;14.00;;;31.11;100972.47;;;;117400;1190;25414;-61
2022/08/29 06:03:12;;;;;;;;;18.25;13.00;;;31.15;100966.47;;;;117337;1190;26441;-62
2022/08/29 06:05:41;;;;;;;;;13.67;10.67;;;31.20;100964.23;;;;117457;1190;25660;-61
2022/08/29 06:08:09;;;;;;;;;14.50;14.25;;;31.23;100962.63;;;;117424;1190;25026;-61
2022/08/29 06:10:41;;;;;;;;;17.25;13.25;;;31.26;100965.70;;;;117432;1189;24746;-62
2022/08/29 06:13:10;;;;;;;;;16.50;14.00;;;31.30;100962.45;;;;117447;1190;25482;-61
2022/08/29 06:15:42;;;;;;;;;17.00;12.00;;;31.34;100962.46;;;;117435;1190;25101;-61
2022/08/29 06:18:11;;;;;;;;;18.50;14.75;;;31.38;100963.58;;;;117436;1190;25671;-62
2022/08/29 06:20:40;;;;;;;;;19.00;12.75;;;31.42;100963.11;;;;117457;1189;25105;-61
2022/08/29 06:23:09;;;;;;;;;16.50;13.50;;;31.45;100960.77;;;;117247;1190;25234;-61
2022/08/29 06:25:37;;;;;;;;;21.00;16.00;;;31.46;100961.36;;;;117429;1189;25229;-61
2022/08/29 06:28:07;;;;;;;;;19.00;18.67;;;31.49;100962.20;;;;117444;1190;24687;-60
2022/08/29 06:30:36;;;;;;;;;13.33;12.67;;;31.51;100966.64;;;;117429;1190;25313;-63
2022/08/29 06:33:04;;;;;;;;;16.67;14.33;;;31.53;100964.13;;;;117392;1190;25840;-65
2022/08/29 06:35:33;;;;;;;;;19.00;14.00;;;31.49;100960.54;;;;117414;1190;25680;-61
2022/08/29 06:38:01;;;;;;;;;11.67;11.33;;;31.48;100960.06;;;;117424;1190;25709;-70
2022/08/29 06:40:30;;;;;;;;;16.75;12.50;;;31.44;100958.27;;;;117414;1190;25187;-58
2022/08/29 06:42:58;;;;;;;;;16.33;13.67;;;31.39;100957.58;;;;117267;1191;24974;-59
2022/08/29 06:45:27;;;;;;;;;15.00;13.67;;;31.43;100959.52;;;;117415;1189;24794;-59
2022/08/29 06:47:55;;;;;;;;;17.00;13.25;;;31.44;100960.54;;;;117294;1189;24940;-57
2022/08/29 06:50:24;;;;;;;;;11.75;10.50;;;31.58;100962.71;;;;117381;1190;25661;-59
2022/08/29 06:52:52;;;;;;;;;13.75;10.50;;;31.54;100961.82;;;;117387;1190;24706;-57
2022/08/29 06:55:22;;;;;;;;;17.25;13.75;;;31.54;100961.47;;;;117235;1191;25552;-57
2022/08/29 06:57:51;;;;;;;;;15.50;12.75;;;31.57;100963.73;;;;117465;1190;25659;-58
2022/08/29 07:00:20;;;;;;;;;15.33;11.00;;;31.59;100965.56;;;;117405;1190;24836;-59
2022/08/29 07:02:51;;;;;;;;;19.50;12.50;;;31.60;100967.27;;;;117332;1190;24939;-61
2022/08/29 07:05:22;;;;;;;;;21.33;16.33;;;31.66;100969.83;;;;117461;1190;25629;-59
2022/08/29 07:07:51;;;;;;;;;16.00;12.50;;;31.60;100966.52;;;;117391;1190;25442;-65
2022/08/29 07:10:19;;;;;;;;;17.25;12.00;;;31.48;100965.74;;;;117390;1191;25588;-69
2022/08/29 07:12:52;;;;;;;;;20.00;14.67;;;31.35;100968.33;;;;117452;1191;25587;-70
2022/08/29 07:15:22;;;;;;;;;20.25;13.50;;;31.30;100972.05;;;;117469;1190;25753;-62
2022/08/29 07:17:51;;;;;;;;;19.50;16.00;;;31.26;100972.66;;;;117396;1190;25537;-59
2022/08/29 07:20:26;;;;;;;;;18.00;15.50;;;31.24;100975.81;;;;117322;1191;24830;-58
2022/08/29 07:22:54;;;;;;;;;26.50;18.75;;;31.17;100980.15;;;;117288;1190;25442;-61
2022/08/29 07:25:23;;;;;;;;;20.25;13.75;;;31.15;100983.17;;;;117449;1189;25483;-60
2022/08/29 07:27:52;;;;;;;;;15.25;13.25;;;31.18;100985.23;;;;117403;1190;25470;-62
2022/08/29 07:30:21;;;;;;;;;19.33;17.33;;;31.13;100987.44;;;;117357;1190;25170;-61
2022/08/29 07:32:50;;;;;;;;;28.33;21.00;;;31.12;100988.65;;;;117358;1189;25201;-61
2022/08/29 07:35:19;;;;;;;;;32.50;25.75;;;31.14;100992.88;;;;117374;1190;25331;-60
2022/08/29 07:38:00;;;;;;;;;36.75;32.25;;;31.19;100994.15;;;;117172;1191;25453;-64
2022/08/29 07:40:29;;;;;;;;;29.25;26.50;;;31.21;100996.39;;;;117509;1191;25022;-64
2022/08/29 07:42:57;;;;;;;;;27.67;26.33;;;31.24;100998.77;;;;117493;1189;25673;-64
2022/08/29 07:45:26;;;;;;;;;38.67;31.33;;;31.25;101002.74;;;;117407;1190;24980;-63
2022/08/29 07:47:54;;;;;;;;;30.50;28.00;;;31.27;100999.77;;;;117552;1190;24968;-65
2022/08/29 07:50:25;;;;;;;;;30.00;28.33;;;31.31;101001.93;;;;117486;1190;25527;-62
2022/08/29 07:52:53;;;;;;;;;38.67;34.33;;;31.33;101002.70;;;;117453;1190;25553;-64
2022/08/29 07:55:22;;;;;;;;;47.25;37.75;;;31.37;101005.19;;;;117457;1190;24809;-65
2022/08/29 07:57:51;;;;;;;;;45.25;36.75;;;31.33;101004.89;;;;117455;1190;24896;-65
2022/08/29 08:00:20;;;;;;;;;49.00;36.67;;;31.37;101004.86;;;;117475;1189;25544;-63
2022/08/29 08:02:48;;;;;;;;;48.00;35.25;;;31.39;101001.73;;;;117430;1191;24735;-64
2022/08/29 08:05:17;;;;;;;;;45.00;36.33;;;31.40;101000.72;;;;117407;1190;25039;-64
2022/08/29 08:07:48;;;;;;;;;41.75;35.75;;;31.43;101002.95;;;;117219;1189;25043;-63
2022/08/29 08:10:23;;;;;;;;;30.25;18.50;;;31.46;101003.23;;;;117383;1190;25483;-63
2022/08/29 08:12:51;;;;;;;;;47.33;40.33;;;31.43;101005.54;;;;117536;1190;25122;-67
2022/08/29 08:15:21;;;;;;;;;49.00;40.33;;;31.51;100999.81;;;;117486;1190;25021;-63
2022/08/29 08:17:49;;;;;;;;;54.33;43.67;;;31.55;100997.58;;;;117426;1190;25179;-62
2022/08/29 08:20:18;;;;;;;;;52.50;44.50;;;31.61;100993.39;;;;117390;1190;25702;-65
2022/08/29 08:22:47;;;;;;;;;63.67;50.33;;;31.56;100992.47;;;;117380;1190;24943;-64
2022/08/29 08:25:15;;;;;;;;;54.33;43.00;;;31.45;100995.11;;;;117307;1190;24864;-67
2022/08/29 08:27:52;;;;;;;;;52.33;42.00;;;31.40;100996.06;;;;117426;1190;24906;-68
2022/08/29 08:30:20;;;;;;;;;48.00;41.00;;;31.31;101000.16;;;;117436;1190;25580;-67
2022/08/29 08:32:52;;;;;;;;;49.00;38.50;;;31.29;100999.44;;;;117446;1189;24857;-66
2022/08/29 08:35:22;;;;;;;;;49.00;39.67;;;31.25;100995.39;;;;117483;1190;24717;-69
2022/08/29 08:37:52;;;;;;;;;48.50;40.00;;;31.13;100998.02;;;;117402;1190;25547;-70
2022/08/29 08:40:25;;;;;;;;;51.25;38.50;;;31.10;100995.52;;;;117456;1189;24942;-66
2022/08/29 08:42:59;;;;;;;;;47.00;39.67;;;31.00;100994.52;;;;117455;1190;24971;-69
2022/08/29 08:45:35;;;;;;;;;52.00;41.67;;;30.98;100992.77;;;;117427;1190;25342;-68
2022/08/29 08:48:27;;;;;;;;;45.50;35.75;;;30.79;100992.46;;;;117387;1190;25279;-62
2022/08/29 08:51:03;;;;;;;;;45.67;38.67;;;30.87;100988.45;;;;117428;1190;25470;-64
2022/08/29 08:53:34;;;;;;;;;47.00;37.67;;;30.74;100985.10;;;;117396;1190;25268;-65
2022/08/29 08:56:18;;;;;;;;;46.67;37.33;;;30.65;100983.39;;;;117348;1190;25190;-63
2022/08/29 08:58:57;;;;;;;;;35.00;33.00;;;30.58;100979.71;;;;117416;1190;25020;-64
2022/08/29 09:01:38;;;;;;;;;46.33;38.00;;;30.47;100980.38;;;;117409;1190;25264;-60
2022/08/29 09:04:09;;;;;;;;;45.67;37.33;;;30.29;100980.16;;;;117384;1191;25684;-65
2022/08/29 09:07:11;;;;;;;;;41.33;36.00;;;30.41;100975.80;;;;117359;1190;25178;-62
2022/08/29 09:09:49;;;;;;;;;48.33;37.00;;;30.55;100979.23;;;;117435;1188;25581;-61
2022/08/29 09:12:31;;;;;;;;;46.33;37.33;;;30.48;100979.62;;;;117363;1190;25413;-57
2022/08/29 09:15:11;;;;;;;;;45.67;37.00;;;30.45;100977.34;;;;117388;1190;25004;-59
2022/08/29 09:17:59;;;;;;;;;43.33;35.67;;;30.52;100978.73;;;;117484;1190;25672;-70
2022/08/29 09:20:33;;;;;;;;;43.50;35.50;;;30.56;100975.91;;;;117414;1189;25286;-63
2022/08/29 09:23:23;;;;;;;;;45.00;35.00;;;30.58;100976.67;;;;117426;1190;25077;-60
2022/08/29 09:25:52;;;;;;;;;39.75;32.75;;;30.61;100976.50;;;;117392;1190;25162;-60
2022/08/29 09:28:21;;;;;;;;;46.33;36.67;;;30.47;100977.65;;;;117390;1190;25655;-60
2022/08/29 09:31:15;;;;;;;;;37.50;34.00;;;30.42;100973.33;;;;117493;1189;24845;-60
2022/08/29 09:33:47;;;;;;;;;43.25;35.00;;;30.46;100973.38;;;;117440;1190;25659;-63
2022/08/29 09:36:38;;;;;;;;;38.67;34.33;;;30.44;100971.90;;;;117388;1191;25166;-62
2022/08/29 09:39:19;;;;;;;;;42.67;34.33;;;30.62;100972.79;;;;117427;1188;25229;-61
2022/08/29 09:41:53;;;;;;;;;46.00;35.00;;;30.57;100976.81;;;;117422;1190;25123;-67
2022/08/29 09:44:25;;;;;;;;;40.00;34.00;;;30.59;100976.18;;;;117438;1190;25628;-58
2022/08/29 09:47:20;;;;;;;;;44.50;35.50;;;30.49;100975.36;;;;117445;1190;24966;-61
2022/08/29 09:50:06;;;;;;;;;32.50;30.00;;;30.42;100963.30;;;;117416;1190;24840;-62
2022/08/29 09:52:39;;;;;;;;;42.75;34.25;;;30.33;100970.94;;;;117367;1189;25522;-62
2022/08/29 09:55:21;;;;;;;;;41.33;34.00;;;30.40;100966.39;;;;117360;1190;25629;-61
2022/08/29 09:58:10;;;;;;;;;43.75;33.75;;;30.34;100967.34;;;;117395;1191;24870;-61
2022/08/29 10:00:44;;;;;;;;;35.00;31.00;;;30.36;100966.61;;;;117403;1190;24720;-59
2022/08/29 10:03:20;;;;;;;;;41.00;29.67;;;30.38;100965.17;;;;117395;1190;25272;-62
2022/08/29 10:06:09;;;;;;;;;43.50;32.00;;;30.20;100965.31;;;;117427;1189;24920;-60
2022/08/29 10:08:40;;;;;;;;;40.33;32.33;;;30.38;100962.23;;;;117415;1190;24982;-60
2022/08/29 10:11:14;;;;;;;;;33.00;32.33;;;30.39;100964.34;;;;117400;1190;25665;-62
2022/08/29 10:13:50;;;;;;;;;35.25;32.75;;;30.33;100959.38;;;;117393;1190;25636;-61
2022/08/29 10:16:34;;;;;;;;;47.00;35.33;;;30.31;100959.48;;;;117385;1189;25176;-61
2022/08/29 10:19:06;;;;;;;;;35.00;30.50;;;30.26;100958.77;;;;117385;1190;25090;-63
2022/08/29 10:21:50;;;;;;;;;39.25;29.75;;;30.20;100963.27;;;;117426;1189;25658;-62
2022/08/29 10:24:40;;;;;;;;;43.67;33.67;;;30.14;100961.03;;;;117362;1190;24856;-61
2022/08/29 10:27:22;;;;;;;;;32.25;26.25;;;30.12;100955.13;;;;117377;1189;25102;-61
2022/08/29 10:30:08;;;;;;;;;37.75;28.50;;;30.10;100953.60;;;;117420;1190;25518;-59
2022/08/29 10:32:48;;;;;;;;;37.75;30.75;;;30.21;100949.36;;;;117386;1190;24818;-59
2022/08/29 10:35:29;;;;;;;;;36.25;28.75;;;30.22;100942.36;;;;117415;1189;24994;-59
2022/08/29 10:38:13;;;;;;;;;31.50;25.50;;;30.22;100949.60;;;;117371;1190;25672;-65
2022/08/29 10:40:46;;;;;;;;;32.75;29.50;;;30.29;100946.29;;;;117456;1190;24983;-62
2022/08/29 10:43:33;;;;;;;;;38.00;25.25;;;30.28;100947.63;;;;117379;1190;25053;-63
2022/08/29 10:46:37;;;;;;;;;37.00;32.00;;;30.33;100947.23;;;;117357;1188;25483;-67
2022/08/29 10:49:23;;;;;;;;;27.67;26.00;;;30.29;100948.34;;;;117295;1190;25533;-63
2022/08/29 10:52:07;;;;;;;;;36.33;30.33;;;30.32;100945.63;;;;117386;1190;24993;-62
2022/08/29 10:55:06;;;;;;;;;26.33;25.33;;;30.22;100945.25;;;;117391;1189;25003;-62
2022/08/29 10:57:47;;;;;;;;;27.50;27.00;;;30.17;100939.52;;;;117363;1190;25533;-62
2022/08/29 11:00:15;;;;;;;;;36.25;30.00;;;30.34;100939.89;;;;117380;1189;25266;-62
2022/08/29 11:02:52;;;;;;;;;39.00;32.50;;;30.42;100939.74;;;;117436;1190;25056;-61
2022/08/29 11:05:25;;;;;;;;;44.25;34.75;;;30.44;100937.68;;;;117400;1190;25573;-59
2022/08/29 11:08:16;;;;;;;;;39.33;33.33;;;30.48;100934.37;;;;117374;1190;24902;-61
2022/08/29 11:10:49;;;;;;;;;24.50;23.50;;;30.44;100934.98;;;;117408;1190;25196;-61
2022/08/29 11:13:25;;;;;;;;;35.50;31.75;;;30.43;100929.68;;;;117374;1190;25447;-62
2022/08/29 11:16:20;;;;;;;;;35.33;32.00;;;30.39;100928.88;;;;117364;1190;25043;-58
2022/08/29 11:19:08;;;;;;;;;33.75;28.75;;;30.43;100928.68;;;;117452;1189;24930;-57
2022/08/29 11:21:45;;;;;;;;;36.25;29.50;;;30.45;100927.95;;;;117403;1190;25153;-59
2022/08/29 11:24:16;;;;;;;;;32.75;30.25;;;30.45;100922.98;;;;117401;1190;25345;-62
2022/08/29 11:26:50;;;;;;;;;32.25;27.50;;;30.40;100917.31;;;;117321;1190;24777;-66
2022/08/29 11:29:25;;;;;;;;;32.75;28.50;;;30.41;100912.52;;;;117387;1189;25236;-62
2022/08/29 11:32:03;;;;;;;;;39.25;30.75;;;30.36;100910.73;;;;117407;1188;25145;-59
2022/08/29 11:34:40;;;;;;;;;34.33;26.67;;;30.33;100914.61;;;;117450;1190;25639;-62
2022/08/29 11:37:30;;;;;;;;;30.75;24.75;;;30.30;100914.46;;;;117399;1190;25186;-61
2022/08/29 11:40:39;;;;;;;;;37.00;27.50;;;30.27;100913.77;;;;117456;1188;25364;-59
2022/08/29 11:43:36;;;;;;;;;32.67;29.00;;;30.20;100908.18;;;;117343;1189;24820;-61
2022/08/29 11:46:06;;;;;;;;;26.67;22.33;;;30.28;100906.22;;;;117432;1190;25435;-65
2022/08/29 11:48:34;;;;;;;;;31.67;27.00;;;30.27;100905.05;;;;117354;1189;25631;-62
2022/08/29 11:51:25;;;;;;;;;36.25;26.75;;;30.20;100906.05;;;;117398;1188;24803;-60
2022/08/29 11:53:54;;;;;;;;;32.67;25.67;;;30.11;100905.95;;;;117393;1190;25007;-62
2022/08/29 11:56:26;;;;;;;;;28.50;24.75;;;30.15;100900.02;;;;117447;1190;24785;-59
2022/08/29 11:58:57;;;;;;;;;29.00;22.75;;;30.15;100897.76;;;;117397;1190;25638;-60
2022/08/29 12:01:56;;;;;;;;;24.67;23.33;;;30.03;100898.04;;;;117416;1190;25392;-60
2022/08/29 12:05:06;;;;;;;;;27.00;24.33;;;30.10;100897.23;;;;117362;1190;25430;-60
2022/08/29 12:07:50;;;;;;;;;30.75;28.00;;;30.22;100895.27;;;;117304;1188;25517;-61
2022/08/29 12:10:20;;;;;;;;;27.25;22.50;;;30.13;100889.36;;;;117381;1190;24837;-61
2022/08/29 12:13:08;;;;;;;;;30.00;23.00;;;30.15;100889.52;;;;117370;1190;25144;-62